FVMB weather

Mashumbi Airport
Mashumbi, Mashonaland Central Province, Zimbabwe

Public forecast

Using degrees Celsius for public forecast. Weather courtesy of forecast.io.

Closest aviation weather report (METAR) to Mashumbi Airport

Report is more than 6 hours old.

Closest report is Kariba International Airport, 99.2 nm (183.7 km) WSW. Retrieved 2019/10/22 15:00 UTC (19 hours ago):

FVKB 221500Z 03004KT CAVOK 38/13 Q1003 NOSIG

Closest aviation forecast (TAF) to Mashumbi Airport

Forecast is more than 12 hours old.

Closest forecast is Jeki Airport, 64.2 nm (118.9 km) WNW. Retrieved 2019/10/22 18:00 UTC (16 hours ago):

TAF FLJK 221600Z 2218/2324 VRB03KT CAVOK BECMG 2306/2308 10010KT 9000 NSC BECMG 2310/2312 SCT040TCU BECMG 2319/2321 VRB03KT CAVOK